Horton, Kentucky
Current Conditions -  °F | °C
As of 10:35 PM on Wednesday 26 Nov 2014 (Local Time) from K2I0 Reporting Station
Haze Haze  
Wind Chill: 35°   Ceiling: 200
Heat Index: 35°   Visibility: 3mi
Dew Point: 35°   Wind: 0mph
Humidity: 100%   Direction: NA
Pressure: 30.07"   Gusts: NA
Location:  37.3559°N, 86.8747°W
Report Text: K2I0 270435Z AUTO 00000KT 3SM BR OVC002 02/02 A3007 RMK AO2 T00160016
Loading
Personal Weather Stations






























Interactive Weather Map New forecast layout! Learn more

10-Day Weather Forecast

Advertisements
Track Severe Weather on mobile